sensor_id;sensor_type;location;lat;lon;timestamp;temperature;humidity
56123;DHT22;42426;46.104;19.656;2023-03-31T00:01:03;333.10;2329.60
56123;DHT22;42426;46.104;19.656;2023-03-31T00:03:29;333.00;2329.60
56123;DHT22;42426;46.104;19.656;2023-03-31T00:06:00;333.00;2329.60
56123;DHT22;42426;46.104;19.656;2023-03-31T00:08:27;332.90;2329.60
56123;DHT22;42426;46.104;19.656;2023-03-31T00:10:58;332.80;2329.60
56123;DHT22;42426;46.104;19.656;2023-03-31T00:13:24;332.80;2329.60
56123;DHT22;42426;46.104;19.656;2023-03-31T00:15:59;332.80;2329.60
56123;DHT22;42426;46.104;19.656;2023-03-31T00:18:25;332.80;2329.60
56123;DHT22;42426;46.104;19.656;2023-03-31T00:20:52;332.80;2329.60
56123;DHT22;42426;46.104;19.656;2023-03-31T00:23:19;308.10;2304.00
56123;DHT22;42426;46.104;19.656;2023-03-31T00:25:53;332.80;2329.60
56123;DHT22;42426;46.104;19.656;2023-03-31T00:28:20;332.80;2329.60
56123;DHT22;42426;46.104;19.656;2023-03-31T00:30:46;332.80;2329.60
56123;DHT22;42426;46.104;19.656;2023-03-31T00:33:13;332.80;2329.60
56123;DHT22;42426;46.104;19.656;2023-03-31T00:35:38;332.80;2329.60
56123;DHT22;42426;46.104;19.656;2023-03-31T00:38:05;332.80;2329.60
56123;DHT22;42426;46.104;19.656;2023-03-31T00:40:34;332.80;2329.60
56123;DHT22;42426;46.104;19.656;2023-03-31T00:43:01;332.80;2329.60
56123;DHT22;42426;46.104;19.656;2023-03-31T00:45:30;308.10;2304.00
56123;DHT22;42426;46.104;19.656;2023-03-31T00:48:02;308.10;2304.00
56123;DHT22;42426;46.104;19.656;2023-03-31T00:50:37;332.80;2329.60
56123;DHT22;42426;46.104;19.656;2023-03-31T00:53:09;308.10;2304.00
56123;DHT22;42426;46.104;19.656;2023-03-31T00:55:47;308.10;2304.00
56123;DHT22;42426;46.104;19.656;2023-03-31T00:58:15;308.10;2304.00
56123;DHT22;42426;46.104;19.656;2023-03-31T01:00:48;308.00;2304.00
56123;DHT22;42426;46.104;19.656;2023-03-31T01:03:15;308.00;2304.00
56123;DHT22;42426;46.104;19.656;2023-03-31T01:05:49;308.00;2304.00
56123;DHT22;42426;46.104;19.656;2023-03-31T01:08:18;308.00;2304.00
56123;DHT22;42426;46.104;19.656;2023-03-31T01:10:48;308.00;2304.00
56123;DHT22;42426;46.104;19.656;2023-03-31T01:13:16;308.00;2304.00
56123;DHT22;42426;46.104;19.656;2023-03-31T01:15:43;308.00;2304.00
56123;DHT22;42426;46.104;19.656;2023-03-31T01:18:09;308.00;2304.00
56123;DHT22;42426;46.104;19.656;2023-03-31T01:26:19;307.90;2304.00
56123;DHT22;42426;46.104;19.656;2023-03-31T01:28:58;307.80;2304.00
56123;DHT22;42426;46.104;19.656;2023-03-31T01:51:21;307.70;2304.00
56123;DHT22;42426;46.104;19.656;2023-03-31T01:54:20;307.60;2304.00
56123;DHT22;42426;46.104;19.656;2023-03-31T01:57:12;307.70;2304.00
56123;DHT22;42426;46.104;19.656;2023-03-31T02:00:08;307.70;2304.00
56123;DHT22;42426;46.104;19.656;2023-03-31T02:02:46;307.70;2304.00
56123;DHT22;42426;46.104;19.656;2023-03-31T02:05:23;307.70;2304.00
56123;DHT22;42426;46.104;19.656;2023-03-31T02:07:55;307.70;2304.00
56123;DHT22;42426;46.104;19.656;2023-03-31T02:10:24;307.70;2304.00
56123;DHT22;42426;46.104;19.656;2023-03-31T02:12:50;307.70;2304.00
56123;DHT22;42426;46.104;19.656;2023-03-31T02:15:24;307.70;2304.00
56123;DHT22;42426;46.104;19.656;2023-03-31T02:17:52;307.60;2304.00
56123;DHT22;42426;46.104;19.656;2023-03-31T02:20:21;307.70;2304.00
56123;DHT22;42426;46.104;19.656;2023-03-31T02:22:54;307.60;2304.00
56123;DHT22;42426;46.104;19.656;2023-03-31T02:25:24;307.60;2304.00
56123;DHT22;42426;46.104;19.656;2023-03-31T02:27:55;307.60;2304.00
56123;DHT22;42426;46.104;19.656;2023-03-31T02:30:27;307.60;2304.00
56123;DHT22;42426;46.104;19.656;2023-03-31T02:32:54;307.60;2304.00
56123;DHT22;42426;46.104;19.656;2023-03-31T02:35:20;307.60;2304.00
56123;DHT22;42426;46.104;19.656;2023-03-31T02:37:48;307.60;2304.00
56123;DHT22;42426;46.104;19.656;2023-03-31T02:40:21;307.60;2304.00
56123;DHT22;42426;46.104;19.656;2023-03-31T02:42:47;307.60;2304.00
56123;DHT22;42426;46.104;19.656;2023-03-31T02:45:37;307.60;2304.00
56123;DHT22;42426;46.104;19.656;2023-03-31T02:48:05;307.60;2304.00
56123;DHT22;42426;46.104;19.656;2023-03-31T02:50:50;307.50;2304.00
56123;DHT22;42426;46.104;19.656;2023-03-31T02:53:50;307.50;2304.00
56123;DHT22;42426;46.104;19.656;2023-03-31T02:56:58;307.50;2304.00
56123;DHT22;42426;46.104;19.656;2023-03-31T02:59:37;307.40;2304.00
56123;DHT22;42426;46.104;19.656;2023-03-31T03:02:21;307.40;2304.00
56123;DHT22;42426;46.104;19.656;2023-03-31T03:10:14;307.40;2304.00
56123;DHT22;42426;46.104;19.656;2023-03-31T03:15:57;307.30;2304.00
56123;DHT22;42426;46.104;19.656;2023-03-31T03:18:25;307.30;2304.00
56123;DHT22;42426;46.104;19.656;2023-03-31T03:20:52;307.20;2304.00
56123;DHT22;42426;46.104;19.656;2023-03-31T03:23:18;307.20;2304.00
56123;DHT22;42426;46.104;19.656;2023-03-31T03:25:45;307.20;2304.00
56123;DHT22;42426;46.104;19.656;2023-03-31T03:28:12;282.50;2278.40
56123;DHT22;42426;46.104;19.656;2023-03-31T03:30:38;307.20;2304.00
56123;DHT22;42426;46.104;19.656;2023-03-31T03:33:04;282.50;2278.40
56123;DHT22;42426;46.104;19.656;2023-03-31T03:35:32;282.50;2278.40
56123;DHT22;42426;46.104;19.656;2023-03-31T03:38:00;282.50;2278.40
56123;DHT22;42426;46.104;19.656;2023-03-31T03:40:26;282.50;2278.40
56123;DHT22;42426;46.104;19.656;2023-03-31T03:42:51;282.50;2278.40
56123;DHT22;42426;46.104;19.656;2023-03-31T03:45:17;282.40;2278.40
56123;DHT22;42426;46.104;19.656;2023-03-31T03:47:43;282.40;2278.40
56123;DHT22;42426;46.104;19.656;2023-03-31T03:50:09;282.40;2278.40
56123;DHT22;42426;46.104;19.656;2023-03-31T03:52:37;282.40;2278.40
56123;DHT22;42426;46.104;19.656;2023-03-31T03:57:34;282.40;2278.40
56123;DHT22;42426;46.104;19.656;2023-03-31T04:00:00;282.30;2278.40
56123;DHT22;42426;46.104;19.656;2023-03-31T04:02:28;282.30;2278.40
56123;DHT22;42426;46.104;19.656;2023-03-31T04:04:54;282.20;2278.40
56123;DHT22;42426;46.104;19.656;2023-03-31T04:07:19;282.20;2278.40
56123;DHT22;42426;46.104;19.656;2023-03-31T04:12:12;282.40;2278.40
56123;DHT22;42426;46.104;19.656;2023-03-31T04:14:38;282.10;2278.40
56123;DHT22;42426;46.104;19.656;2023-03-31T04:17:04;282.10;2278.40
56123;DHT22;42426;46.104;19.656;2023-03-31T04:19:29;282.00;2278.40
56123;DHT22;42426;46.104;19.656;2023-03-31T04:21:55;282.00;2278.40
56123;DHT22;42426;46.104;19.656;2023-03-31T04:24:27;282.00;2278.40
56123;DHT22;42426;46.104;19.656;2023-03-31T04:26:58;282.00;2278.40
56123;DHT22;42426;46.104;19.656;2023-03-31T04:29:24;282.00;2278.40
56123;DHT22;42426;46.104;19.656;2023-03-31T04:31:54;281.90;2278.40
56123;DHT22;42426;46.104;19.656;2023-03-31T04:34:24;281.90;2278.40
56123;DHT22;42426;46.104;19.656;2023-03-31T04:36:51;282.10;2278.40
56123;DHT22;42426;46.104;19.656;2023-03-31T04:39:21;281.90;2278.40
56123;DHT22;42426;46.104;19.656;2023-03-31T04:41:55;281.80;2278.40
56123;DHT22;42426;46.104;19.656;2023-03-31T04:44:22;281.80;2278.40
56123;DHT22;42426;46.104;19.656;2023-03-31T04:46:48;281.80;2278.40
56123;DHT22;42426;46.104;19.656;2023-03-31T04:49:14;281.80;2278.40
56123;DHT22;42426;46.104;19.656;2023-03-31T04:51:40;281.70;2278.40
56123;DHT22;42426;46.104;19.656;2023-03-31T04:54:06;281.70;2278.40
56123;DHT22;42426;46.104;19.656;2023-03-31T04:56:31;281.70;2278.40
56123;DHT22;42426;46.104;19.656;2023-03-31T04:58:58;281.70;2278.40
56123;DHT22;42426;46.104;19.656;2023-03-31T05:01:24;281.70;2278.40
56123;DHT22;42426;46.104;19.656;2023-03-31T05:03:49;281.70;2278.40
56123;DHT22;42426;46.104;19.656;2023-03-31T05:06:16;281.70;2278.40
56123;DHT22;42426;46.104;19.656;2023-03-31T05:08:41;281.70;2278.40
56123;DHT22;42426;46.104;19.656;2023-03-31T05:11:07;281.70;2278.40
56123;DHT22;42426;46.104;19.656;2023-03-31T05:13:33;281.70;2278.40
56123;DHT22;42426;46.104;19.656;2023-03-31T05:16:06;281.70;2278.40
56123;DHT22;42426;46.104;19.656;2023-03-31T05:18:31;281.70;2278.40
56123;DHT22;42426;46.104;19.656;2023-03-31T05:21:09;281.70;2278.40
56123;DHT22;42426;46.104;19.656;2023-03-31T05:23:35;281.70;2278.40
56123;DHT22;42426;46.104;19.656;2023-03-31T05:26:08;281.70;2278.40
56123;DHT22;42426;46.104;19.656;2023-03-31T05:28:34;281.70;2278.40
56123;DHT22;42426;46.104;19.656;2023-03-31T05:31:02;281.70;2278.40
56123;DHT22;42426;46.104;19.656;2023-03-31T05:33:29;281.70;2278.40
56123;DHT22;42426;46.104;19.656;2023-03-31T05:35:55;281.80;2278.40
56123;DHT22;42426;46.104;19.656;2023-03-31T05:38:21;281.80;2278.40
56123;DHT22;42426;46.104;19.656;2023-03-31T05:40:47;281.80;2278.40
56123;DHT22;42426;46.104;19.656;2023-03-31T05:43:13;281.80;2278.40
56123;DHT22;42426;46.104;19.656;2023-03-31T05:45:38;281.90;2278.40
56123;DHT22;42426;46.104;19.656;2023-03-31T05:48:05;281.90;2278.40
56123;DHT22;42426;46.104;19.656;2023-03-31T05:50:31;282.00;2278.40
56123;DHT22;42426;46.104;19.656;2023-03-31T05:52:57;282.00;2278.40
56123;DHT22;42426;46.104;19.656;2023-03-31T05:55:23;282.00;2278.40
56123;DHT22;42426;46.104;19.656;2023-03-31T05:57:49;282.10;2278.40
56123;DHT22;42426;46.104;19.656;2023-03-31T06:00:15;282.10;2278.40
56123;DHT22;42426;46.104;19.656;2023-03-31T06:02:43;282.20;2278.40
56123;DHT22;42426;46.104;19.656;2023-03-31T06:05:08;282.30;2278.40
56123;DHT22;42426;46.104;19.656;2023-03-31T06:07:34;282.40;2278.40
56123;DHT22;42426;46.104;19.656;2023-03-31T06:10:00;282.50;2278.40
56123;DHT22;42426;46.104;19.656;2023-03-31T06:12:31;282.50;2278.40
56123;DHT22;42426;46.104;19.656;2023-03-31T06:14:57;307.20;2304.00
56123;DHT22;42426;46.104;19.656;2023-03-31T06:17:22;307.30;2304.00
56123;DHT22;42426;46.104;19.656;2023-03-31T06:20:08;307.40;2304.00
56123;DHT22;42426;46.104;19.656;2023-03-31T06:22:34;307.50;2304.00
56123;DHT22;42426;46.104;19.656;2023-03-31T06:25:00;307.50;2304.00
56123;DHT22;42426;46.104;19.656;2023-03-31T06:27:49;307.60;2304.00
56123;DHT22;42426;46.104;19.656;2023-03-31T06:30:15;307.70;2304.00
56123;DHT22;42426;46.104;19.656;2023-03-31T06:32:41;307.80;2304.00
56123;DHT22;42426;46.104;19.656;2023-03-31T06:35:07;307.80;2304.00
56123;DHT22;42426;46.104;19.656;2023-03-31T06:37:33;307.90;2304.00
56123;DHT22;42426;46.104;19.656;2023-03-31T06:39:58;308.00;2304.00
56123;DHT22;42426;46.104;19.656;2023-03-31T06:42:24;308.00;2304.00
56123;DHT22;42426;46.104;19.656;2023-03-31T06:44:50;308.10;2304.00
56123;DHT22;42426;46.104;19.656;2023-03-31T06:47:15;332.80;2329.60
56123;DHT22;42426;46.104;19.656;2023-03-31T06:49:41;332.80;2329.60
56123;DHT22;42426;46.104;19.656;2023-03-31T06:52:07;332.90;2329.60
56123;DHT22;42426;46.104;19.656;2023-03-31T06:56:59;333.20;2329.60
56123;DHT22;42426;46.104;19.656;2023-03-31T06:59:25;333.10;2329.60
56123;DHT22;42426;46.104;19.656;2023-03-31T07:01:51;333.20;2329.60
56123;DHT22;42426;46.104;19.656;2023-03-31T07:04:17;333.20;2329.60
56123;DHT22;42426;46.104;19.656;2023-03-31T07:06:43;333.30;2329.60
56123;DHT22;42426;46.104;19.656;2023-03-31T07:09:10;333.40;2329.60
56123;DHT22;42426;46.104;19.656;2023-03-31T07:11:35;333.40;2329.60
56123;DHT22;42426;46.104;19.656;2023-03-31T07:14:01;333.50;2329.60
56123;DHT22;42426;46.104;19.656;2023-03-31T07:16:27;333.60;2329.60
56123;DHT22;42426;46.104;19.656;2023-03-31T07:18:52;333.70;2329.60
56123;DHT22;42426;46.104;19.656;2023-03-31T07:21:24;358.40;2329.60
56123;DHT22;42426;46.104;19.656;2023-03-31T07:23:51;358.40;2329.60
56123;DHT22;42426;46.104;19.656;2023-03-31T07:26:16;358.40;2329.60
56123;DHT22;42426;46.104;19.656;2023-03-31T07:28:42;358.50;2329.60
56123;DHT22;42426;46.104;19.656;2023-03-31T07:31:12;358.60;2329.60
56123;DHT22;42426;46.104;19.656;2023-03-31T07:33:38;358.60;2329.60
56123;DHT22;42426;46.104;19.656;2023-03-31T07:36:04;358.70;2329.60
56123;DHT22;42426;46.104;19.656;2023-03-31T07:38:31;358.70;2329.60
56123;DHT22;42426;46.104;19.656;2023-03-31T07:40:57;358.80;2329.60
56123;DHT22;42426;46.104;19.656;2023-03-31T07:43:23;358.90;2329.60
56123;DHT22;42426;46.104;19.656;2023-03-31T07:45:48;359.00;2329.60
56123;DHT22;42426;46.104;19.656;2023-03-31T07:48:14;359.10;2329.60
56123;DHT22;42426;46.104;19.656;2023-03-31T07:50:40;359.20;2329.60
56123;DHT22;42426;46.104;19.656;2023-03-31T07:53:07;359.20;2329.60
56123;DHT22;42426;46.104;19.656;2023-03-31T07:55:32;359.20;2329.60
56123;DHT22;42426;46.104;19.656;2023-03-31T07:57:59;384.00;2304.00
56123;DHT22;42426;46.104;19.656;2023-03-31T08:00:25;384.00;2304.00
56123;DHT22;42426;46.104;19.656;2023-03-31T08:02:51;384.10;2278.40
56123;DHT22;42426;46.104;19.656;2023-03-31T08:05:18;384.10;2304.00
56123;DHT22;42426;46.104;19.656;2023-03-31T08:07:46;384.20;2278.40
56123;DHT22;42426;46.104;19.656;2023-03-31T08:10:16;384.30;2252.80
56123;DHT22;42426;46.104;19.656;2023-03-31T08:12:42;384.30;2252.80
56123;DHT22;42426;46.104;19.656;2023-03-31T08:15:09;384.40;2252.80
56123;DHT22;42426;46.104;19.656;2023-03-31T08:17:37;384.40;2227.20
56123;DHT22;42426;46.104;19.656;2023-03-31T08:20:04;384.50;2252.80
56123;DHT22;42426;46.104;19.656;2023-03-31T08:22:33;384.50;2201.60
56123;DHT22;42426;46.104;19.656;2023-03-31T08:24:59;384.60;2176.00
56123;DHT22;42426;46.104;19.656;2023-03-31T08:27:25;384.60;2201.60
56123;DHT22;42426;46.104;19.656;2023-03-31T08:29:50;384.80;2227.20
56123;DHT22;42426;46.104;19.656;2023-03-31T08:32:16;384.80;2227.20
56123;DHT22;42426;46.104;19.656;2023-03-31T08:34:42;384.90;2227.20
56123;DHT22;42426;46.104;19.656;2023-03-31T08:37:15;384.90;2201.60
56123;DHT22;42426;46.104;19.656;2023-03-31T08:39:40;409.60;2201.60
56123;DHT22;42426;46.104;19.656;2023-03-31T08:42:13;409.60;2201.60
56123;DHT22;42426;46.104;19.656;2023-03-31T08:45:34;409.70;2201.60
56123;DHT22;42426;46.104;19.656;2023-03-31T08:47:43;409.70;2201.60
56123;DHT22;42426;46.104;19.656;2023-03-31T08:50:16;409.80;2201.60
56123;DHT22;42426;46.104;19.656;2023-03-31T08:55:48;410.00;2176.00
56123;DHT22;42426;46.104;19.656;2023-03-31T09:06:49;410.10;2124.80
56123;DHT22;42426;46.104;19.656;2023-03-31T09:09:28;410.10;2124.80
56123;DHT22;42426;46.104;19.656;2023-03-31T09:12:04;410.10;2073.60
56123;DHT22;42426;46.104;19.656;2023-03-31T09:14:37;410.10;2099.20
56123;DHT22;42426;46.104;19.656;2023-03-31T09:19:58;410.20;2099.20
56123;DHT22;42426;46.104;19.656;2023-03-31T09:22:30;410.30;2099.20
56123;DHT22;42426;46.104;19.656;2023-03-31T09:25:04;410.40;2124.80
56123;DHT22;42426;46.104;19.656;2023-03-31T09:27:32;410.40;2099.20
56123;DHT22;42426;46.104;19.656;2023-03-31T09:30:13;410.40;2099.20
56123;DHT22;42426;46.104;19.656;2023-03-31T09:32:42;410.50;2073.60
56123;DHT22;42426;46.104;19.656;2023-03-31T09:35:19;435.20;2099.20
56123;DHT22;42426;46.104;19.656;2023-03-31T09:37:47;435.20;2073.60
56123;DHT22;42426;46.104;19.656;2023-03-31T09:40:22;435.20;2048.00
56123;DHT22;42426;46.104;19.656;2023-03-31T09:43:02;435.30;2022.40
56123;DHT22;42426;46.104;19.656;2023-03-31T09:45:29;435.30;2022.40
56123;DHT22;42426;46.104;19.656;2023-03-31T09:48:17;435.40;1996.80
56123;DHT22;42426;46.104;19.656;2023-03-31T09:50:52;435.50;2022.40
56123;DHT22;42426;46.104;19.656;2023-03-31T09:53:42;435.50;1996.80
56123;DHT22;42426;46.104;19.656;2023-03-31T09:56:10;435.60;2022.40
56123;DHT22;42426;46.104;19.656;2023-03-31T09:58:44;435.60;2048.00
56123;DHT22;42426;46.104;19.656;2023-03-31T10:01:12;435.70;1996.80
56123;DHT22;42426;46.104;19.656;2023-03-31T10:03:52;435.70;2022.40
56123;DHT22;42426;46.104;19.656;2023-03-31T10:06:20;435.70;1996.80
56123;DHT22;42426;46.104;19.656;2023-03-31T10:08:56;435.80;1945.60
56123;DHT22;42426;46.104;19.656;2023-03-31T10:11:22;435.80;1945.60
56123;DHT22;42426;46.104;19.656;2023-03-31T10:14:10;435.80;1971.20
56123;DHT22;42426;46.104;19.656;2023-03-31T10:21:54;435.90;1920.00
56123;DHT22;42426;46.104;19.656;2023-03-31T10:24:20;436.00;1945.60
56123;DHT22;42426;46.104;19.656;2023-03-31T10:26:52;436.00;1894.40
56123;DHT22;42426;46.104;19.656;2023-03-31T10:29:44;436.10;1868.80
56123;DHT22;42426;46.104;19.656;2023-03-31T10:34:41;460.80;1868.80
56123;DHT22;42426;46.104;19.656;2023-03-31T10:37:12;460.90;1843.20
56123;DHT22;42426;46.104;19.656;2023-03-31T10:39:39;460.90;1843.20
56123;DHT22;42426;46.104;19.656;2023-03-31T10:42:05;460.90;1843.20
56123;DHT22;42426;46.104;19.656;2023-03-31T10:44:34;460.90;1868.80
56123;DHT22;42426;46.104;19.656;2023-03-31T10:47:17;460.90;1843.20
56123;DHT22;42426;46.104;19.656;2023-03-31T10:49:43;460.90;1843.20
56123;DHT22;42426;46.104;19.656;2023-03-31T10:54:50;461.00;1792.00
56123;DHT22;42426;46.104;19.656;2023-03-31T10:57:17;461.00;1792.00
56123;DHT22;42426;46.104;19.656;2023-03-31T11:13:24;461.30;1740.80
56123;DHT22;42426;46.104;19.656;2023-03-31T11:21:46;461.50;1715.20
56123;DHT22;42426;46.104;19.656;2023-03-31T11:24:16;461.60;1766.40
56123;DHT22;42426;46.104;19.656;2023-03-31T11:30:00;486.40;1766.40
56123;DHT22;42426;46.104;19.656;2023-03-31T11:41:04;486.50;1664.00
56123;DHT22;42426;46.104;19.656;2023-03-31T11:43:41;486.60;1689.60
56123;DHT22;42426;46.104;19.656;2023-03-31T11:48:59;486.60;1715.20
56123;DHT22;42426;46.104;19.656;2023-03-31T11:51:37;486.70;1689.60
56123;DHT22;42426;46.104;19.656;2023-03-31T11:54:05;486.60;1689.60
56123;DHT22;42426;46.104;19.656;2023-03-31T11:56:38;486.60;1689.60
56123;DHT22;42426;46.104;19.656;2023-03-31T11:59:05;486.60;1689.60
56123;DHT22;42426;46.104;19.656;2023-03-31T12:04:15;486.60;1664.00
56123;DHT22;42426;46.104;19.656;2023-03-31T12:06:46;486.60;1638.40
56123;DHT22;42426;46.104;19.656;2023-03-31T12:12:14;486.60;1638.40
56123;DHT22;42426;46.104;19.656;2023-03-31T12:17:20;486.70;1612.80
56123;DHT22;42426;46.104;19.656;2023-03-31T12:19:53;486.80;1612.80
56123;DHT22;42426;46.104;19.656;2023-03-31T12:22:31;486.80;1612.80
56123;DHT22;42426;46.104;19.656;2023-03-31T12:24:59;486.70;1612.80
56123;DHT22;42426;46.104;19.656;2023-03-31T12:27:39;486.70;1612.80
56123;DHT22;42426;46.104;19.656;2023-03-31T12:32:52;486.80;1638.40
56123;DHT22;42426;46.104;19.656;2023-03-31T12:35:26;486.70;1638.40
56123;DHT22;42426;46.104;19.656;2023-03-31T12:49:02;486.90;1561.60
56123;DHT22;42426;46.104;19.656;2023-03-31T12:54:33;487.20;1510.40
56123;DHT22;42426;46.104;19.656;2023-03-31T12:59:39;487.30;1510.40
56123;DHT22;42426;46.104;19.656;2023-03-31T13:04:35;512.10;1536.00
56123;DHT22;42426;46.104;19.656;2023-03-31T13:07:02;512.10;1510.40
56123;DHT22;42426;46.104;19.656;2023-03-31T13:09:46;512.20;1484.80
56123;DHT22;42426;46.104;19.656;2023-03-31T13:12:14;512.20;1484.80
56123;DHT22;42426;46.104;19.656;2023-03-31T13:14:43;512.30;1484.80
56123;DHT22;42426;46.104;19.656;2023-03-31T13:17:24;512.30;1536.00
56123;DHT22;42426;46.104;19.656;2023-03-31T13:19:52;512.40;1484.80
56123;DHT22;42426;46.104;19.656;2023-03-31T13:22:36;512.30;1459.20
56123;DHT22;42426;46.104;19.656;2023-03-31T13:27:50;512.40;1484.80
56123;DHT22;42426;46.104;19.656;2023-03-31T13:35:38;512.40;1433.60
56123;DHT22;42426;46.104;19.656;2023-03-31T13:54:58;512.70;1356.80
56123;DHT22;42426;46.104;19.656;2023-03-31T14:06:19;512.90;1356.80
56123;DHT22;42426;46.104;19.656;2023-03-31T14:08:57;512.90;1356.80
56123;DHT22;42426;46.104;19.656;2023-03-31T14:11:27;512.90;1331.20
56123;DHT22;42426;46.104;19.656;2023-03-31T14:16:31;512.80;1382.40
56123;DHT22;42426;46.104;19.656;2023-03-31T14:21:50;512.80;1382.40
56123;DHT22;42426;46.104;19.656;2023-03-31T14:27:53;512.90;1356.80
56123;DHT22;42426;46.104;19.656;2023-03-31T14:32:34;537.60;1382.40
56123;DHT22;42426;46.104;19.656;2023-03-31T14:35:36;537.60;1356.80
56123;DHT22;42426;46.104;19.656;2023-03-31T14:38:13;537.70;1356.80
56123;DHT22;42426;46.104;19.656;2023-03-31T14:40:47;537.80;1331.20
56123;DHT22;42426;46.104;19.656;2023-03-31T14:43:22;537.90;1331.20
56123;DHT22;42426;46.104;19.656;2023-03-31T14:45:57;537.80;1331.20
56123;DHT22;42426;46.104;19.656;2023-03-31T14:48:23;537.70;1331.20
56123;DHT22;42426;46.104;19.656;2023-03-31T14:50:49;537.70;1331.20
56123;DHT22;42426;46.104;19.656;2023-03-31T14:53:23;537.70;1331.20
56123;DHT22;42426;46.104;19.656;2023-03-31T14:55:49;537.70;1356.80
56123;DHT22;42426;46.104;19.656;2023-03-31T14:58:46;537.70;1331.20
56123;DHT22;42426;46.104;19.656;2023-03-31T15:01:18;537.70;1356.80
56123;DHT22;42426;46.104;19.656;2023-03-31T15:03:49;537.70;1331.20
56123;DHT22;42426;46.104;19.656;2023-03-31T15:06:16;537.70;1331.20
56123;DHT22;42426;46.104;19.656;2023-03-31T15:08:42;537.70;1331.20
56123;DHT22;42426;46.104;19.656;2023-03-31T15:11:12;537.90;1331.20
56123;DHT22;42426;46.104;19.656;2023-03-31T15:13:44;537.90;1331.20
56123;DHT22;42426;46.104;19.656;2023-03-31T15:16:34;537.90;1331.20
56123;DHT22;42426;46.104;19.656;2023-03-31T15:19:09;537.90;1331.20
56123;DHT22;42426;46.104;19.656;2023-03-31T15:21:37;538.00;1331.20
56123;DHT22;42426;46.104;19.656;2023-03-31T15:24:03;538.00;1305.60
56123;DHT22;42426;46.104;19.656;2023-03-31T15:26:33;538.00;1331.20
56123;DHT22;42426;46.104;19.656;2023-03-31T15:29:30;538.10;1305.60
56123;DHT22;42426;46.104;19.656;2023-03-31T15:31:58;538.00;1305.60
56123;DHT22;42426;46.104;19.656;2023-03-31T15:34:29;538.10;1305.60
56123;DHT22;42426;46.104;19.656;2023-03-31T15:36:58;538.00;1305.60
56123;DHT22;42426;46.104;19.656;2023-03-31T15:39:26;537.90;1305.60
56123;DHT22;42426;46.104;19.656;2023-03-31T15:41:53;537.80;1331.20
56123;DHT22;42426;46.104;19.656;2023-03-31T15:47:10;537.70;1331.20
56123;DHT22;42426;46.104;19.656;2023-03-31T15:52:34;538.10;1305.60
56123;DHT22;42426;46.104;19.656;2023-03-31T15:57:50;538.10;1280.00
56123;DHT22;42426;46.104;19.656;2023-03-31T16:00:50;537.70;1305.60
56123;DHT22;42426;46.104;19.656;2023-03-31T16:03:27;512.90;1280.00
56123;DHT22;42426;46.104;19.656;2023-03-31T16:06:09;512.70;1305.60
56123;DHT22;42426;46.104;19.656;2023-03-31T16:08:46;512.50;1331.20
56123;DHT22;42426;46.104;19.656;2023-03-31T16:11:20;512.30;1331.20
56123;DHT22;42426;46.104;19.656;2023-03-31T16:13:53;512.10;1356.80
56123;DHT22;42426;46.104;19.656;2023-03-31T16:16:22;487.30;1382.40
56123;DHT22;42426;46.104;19.656;2023-03-31T16:18:58;487.20;1408.00
56123;DHT22;42426;46.104;19.656;2023-03-31T16:21:32;487.00;1408.00
56123;DHT22;42426;46.104;19.656;2023-03-31T16:24:00;486.90;1433.60
56123;DHT22;42426;46.104;19.656;2023-03-31T16:26:27;486.80;1433.60
56123;DHT22;42426;46.104;19.656;2023-03-31T16:28:54;486.70;1433.60
56123;DHT22;42426;46.104;19.656;2023-03-31T16:31:42;486.60;1459.20
56123;DHT22;42426;46.104;19.656;2023-03-31T16:34:09;486.50;1459.20
56123;DHT22;42426;46.104;19.656;2023-03-31T16:36:36;486.50;1484.80
56123;DHT22;42426;46.104;19.656;2023-03-31T16:39:02;486.40;1484.80
56123;DHT22;42426;46.104;19.656;2023-03-31T16:41:31;461.70;1484.80
56123;DHT22;42426;46.104;19.656;2023-03-31T16:43:57;461.60;1510.40
56123;DHT22;42426;46.104;19.656;2023-03-31T16:46:23;461.60;1510.40
56123;DHT22;42426;46.104;19.656;2023-03-31T16:48:49;461.50;1510.40
56123;DHT22;42426;46.104;19.656;2023-03-31T16:51:16;461.50;1536.00
56123;DHT22;42426;46.104;19.656;2023-03-31T16:53:42;461.40;1536.00
56123;DHT22;42426;46.104;19.656;2023-03-31T16:56:08;461.30;1536.00
56123;DHT22;42426;46.104;19.656;2023-03-31T16:58:35;461.30;1561.60
56123;DHT22;42426;46.104;19.656;2023-03-31T17:01:02;461.20;1561.60
56123;DHT22;42426;46.104;19.656;2023-03-31T17:03:29;461.10;1561.60
56123;DHT22;42426;46.104;19.656;2023-03-31T17:05:55;461.20;1561.60
56123;DHT22;42426;46.104;19.656;2023-03-31T17:08:23;461.10;1587.20
56123;DHT22;42426;46.104;19.656;2023-03-31T17:11:00;461.10;1612.80
56123;DHT22;42426;46.104;19.656;2023-03-31T17:13:27;461.00;1612.80
56123;DHT22;42426;46.104;19.656;2023-03-31T17:15:52;461.00;1612.80
56123;DHT22;42426;46.104;19.656;2023-03-31T17:18:19;460.90;1612.80
56123;DHT22;42426;46.104;19.656;2023-03-31T17:20:45;460.90;1612.80
56123;DHT22;42426;46.104;19.656;2023-03-31T17:23:11;460.90;1638.40
56123;DHT22;42426;46.104;19.656;2023-03-31T17:25:37;460.80;1638.40
56123;DHT22;42426;46.104;19.656;2023-03-31T17:28:03;436.10;1612.80
56123;DHT22;42426;46.104;19.656;2023-03-31T17:30:30;436.10;1612.80
56123;DHT22;42426;46.104;19.656;2023-03-31T17:32:57;435.90;1638.40
56123;DHT22;42426;46.104;19.656;2023-03-31T17:35:23;436.00;1612.80
56123;DHT22;42426;46.104;19.656;2023-03-31T17:37:50;436.00;1638.40
56123;DHT22;42426;46.104;19.656;2023-03-31T17:40:19;436.00;1638.40
56123;DHT22;42426;46.104;19.656;2023-03-31T17:42:45;435.90;1664.00
56123;DHT22;42426;46.104;19.656;2023-03-31T17:45:12;435.90;1638.40
56123;DHT22;42426;46.104;19.656;2023-03-31T17:47:39;435.90;1638.40
56123;DHT22;42426;46.104;19.656;2023-03-31T17:50:06;435.80;1664.00
56123;DHT22;42426;46.104;19.656;2023-03-31T17:52:33;435.80;1664.00
56123;DHT22;42426;46.104;19.656;2023-03-31T17:55:03;435.70;1664.00
56123;DHT22;42426;46.104;19.656;2023-03-31T17:57:30;435.70;1689.60